Time;durP1;ratioP1;P1;durP2;ratioP2;P2;SDS_P1;SDS_P2;PMS_P1;PMS_P2;Temp;Humidity;BMP_temperature;BMP_pressure;BME280_temperature;BME280_humidity;BME280_pressure;Samples;Min_cycle;Max_cycle;Signal;HPM_P1;HPM_P2
2020/12/03 00:00:50;;;;;;;15.47;11.83;;;0.80;99.90;;;;;;5102740;28;20425;-83
2020/12/03 00:03:30;;;;;;;18.60;11.97;;;0.60;99.90;;;;;;5084718;28;20921;-83
2020/12/03 00:06:03;;;;;;;21.00;12.67;;;0.40;99.90;;;;;;5048187;28;20413;-84
2020/12/03 00:08:33;;;;;;;16.47;11.10;;;0.60;99.90;;;;;;5084677;28;20456;-84
2020/12/03 00:11:01;;;;;;;21.10;14.77;;;0.80;99.90;;;;;;5083547;28;20447;-84
2020/12/03 00:13:28;;;;;;;20.13;14.13;;;0.90;99.90;;;;;;5085038;28;20483;-83
2020/12/03 00:15:58;;;;;;;26.10;14.40;;;0.90;99.90;;;;;;5048562;28;20860;-85
2020/12/03 00:18:27;;;;;;;21.87;12.93;;;1.00;99.90;;;;;;5084954;28;20456;-83
2020/12/03 00:20:53;;;;;;;17.40;12.13;;;1.20;99.90;;;;;;5103455;28;20422;-85
2020/12/03 00:23:21;;;;;;;20.90;11.87;;;1.30;99.90;;;;;;5066188;28;20368;-83
2020/12/03 00:25:48;;;;;;;19.23;11.20;;;1.00;99.90;;;;;;5084202;28;20420;-83
2020/12/03 00:28:14;;;;;;;17.57;12.00;;;0.50;99.90;;;;;;5042302;28;20437;-84
2020/12/03 00:30:41;;;;;;;17.53;11.70;;;0.50;99.90;;;;;;5050063;28;20538;-84
2020/12/03 00:33:06;;;;;;;23.03;10.50;;;0.30;99.90;;;;;;5040631;28;20459;-85
2020/12/03 00:35:32;;;;;;;23.33;12.70;;;0.70;99.90;;;;;;5028040;28;20409;-84
2020/12/03 00:37:58;;;;;;;23.80;13.13;;;0.40;99.90;;;;;;5044324;28;20203;-84
2020/12/03 00:40:24;;;;;;;24.23;12.63;;;0.50;99.90;;;;;;5042749;28;20448;-84
2020/12/03 00:42:57;;;;;;;24.70;14.03;;;0.10;99.90;;;;;;5043250;28;20188;-84
2020/12/03 00:45:23;;;;;;;15.13;10.10;;;0.30;99.90;;;;;;5042112;28;20265;-83
2020/12/03 00:47:49;;;;;;;22.20;11.97;;;0.20;99.90;;;;;;5042650;28;20523;-84
2020/12/03 00:50:15;;;;;;;17.57;11.73;;;0.30;99.90;;;;;;5049814;28;20466;-83
2020/12/03 00:52:42;;;;;;;37.13;15.53;;;0.50;99.90;;;;;;5045038;28;20199;-84
2020/12/03 00:55:09;;;;;;;27.30;11.00;;;0.20;99.90;;;;;;5029525;28;20429;-84
2020/12/03 00:57:35;;;;;;;17.83;9.73;;;0.60;99.90;;;;;;5062260;28;20449;-85
2020/12/03 01:00:01;;;;;;;20.40;12.63;;;0.40;99.90;;;;;;5098859;28;20399;-84
2020/12/03 01:02:27;;;;;;;23.40;11.77;;;0.70;99.90;;;;;;5106229;28;20539;-82
2020/12/03 01:04:53;;;;;;;16.43;10.60;;;0.40;99.90;;;;;;5088055;28;20403;-84
2020/12/03 01:07:19;;;;;;;14.73;10.50;;;0.50;99.90;;;;;;5108244;28;20367;-83
2020/12/03 01:09:45;;;;;;;21.33;13.40;;;0.30;99.90;;;;;;5107511;28;20222;-84
2020/12/03 01:12:12;;;;;;;23.07;11.50;;;0.30;99.90;;;;;;5106909;28;20439;-84
2020/12/03 01:14:39;;;;;;;17.33;11.07;;;0.50;99.90;;;;;;5106978;28;20383;-84
2020/12/03 01:17:15;;;;;;;16.43;10.60;;;0.10;99.90;;;;;;5105244;28;20858;-81
2020/12/03 01:19:42;;;;;;;20.47;13.07;;;0.00;99.90;;;;;;5106575;28;20422;-83
2020/12/03 01:22:09;;;;;;;17.83;12.43;;;0.20;99.90;;;;;;5086632;28;20395;-84
2020/12/03 01:24:35;;;;;;;18.93;12.00;;;0.30;99.90;;;;;;5087539;28;20360;-83
2020/12/03 01:27:01;;;;;;;25.33;13.30;;;0.20;99.90;;;;;;5105961;28;20752;-82
2020/12/03 01:29:27;;;;;;;20.67;11.30;;;0.20;99.90;;;;;;5103481;28;20432;-83
2020/12/03 01:31:53;;;;;;;23.40;12.60;;;0.30;99.90;;;;;;5063436;28;20450;-83
2020/12/03 01:34:19;;;;;;;18.40;12.17;;;0.10;99.90;;;;;;5062811;28;20176;-83
2020/12/03 01:36:49;;;;;;;18.77;12.20;;;0.20;99.90;;;;;;5062341;28;20441;-84
2020/12/03 01:39:15;;;;;;;18.27;13.43;;;-0.30;99.90;;;;;;5064954;28;20986;-82
2020/12/03 01:41:41;;;;;;;21.83;13.07;;;-0.40;99.90;;;;;;5064228;28;20421;-84
2020/12/03 01:44:07;;;;;;;25.00;12.13;;;-0.20;99.90;;;;;;5064420;28;20164;-84
2020/12/03 01:46:33;;;;;;;18.03;9.63;;;-0.10;99.90;;;;;;5062375;28;20188;-82
2020/12/03 01:49:17;;;;;;;24.83;11.67;;;0.00;99.90;;;;;;5044830;28;20160;-84
2020/12/03 01:51:53;;;;;;;16.70;13.80;;;-0.30;99.90;;;;;;5054197;28;20480;-84
2020/12/03 01:54:20;;;;;;;22.33;13.03;;;-0.20;99.90;;;;;;5042268;28;20421;-83
2020/12/03 01:57:16;;;;;;;26.40;12.10;;;0.10;99.90;;;;;;5042507;28;20423;-84
2020/12/03 01:59:50;;;;;;;18.20;11.70;;;-0.10;99.90;;;;;;5043130;28;20782;-84
2020/12/03 02:02:17;;;;;;;21.53;12.80;;;0.00;99.90;;;;;;5047315;28;20502;-83
2020/12/03 02:04:43;;;;;;;19.47;13.20;;;-0.10;99.90;;;;;;5064087;28;20406;-84
2020/12/03 02:07:13;;;;;;;18.97;9.73;;;0.00;99.90;;;;;;5064466;28;20413;-84
2020/12/03 02:09:39;;;;;;;21.77;11.73;;;0.00;99.90;;;;;;5064874;28;20672;-84
2020/12/03 02:12:05;;;;;;;26.63;15.03;;;0.10;99.90;;;;;;5064734;28;20454;-84
2020/12/03 02:14:32;;;;;;;20.70;12.63;;;0.00;99.90;;;;;;5035063;28;20429;-84
2020/12/03 02:16:58;;;;;;;30.50;16.50;;;0.20;99.90;;;;;;5072936;28;20374;-84
2020/12/03 02:19:28;;;;;;;30.13;14.00;;;0.10;99.90;;;;;;5049978;28;20215;-85
2020/12/03 02:22:09;;;;;;;21.73;11.37;;;0.30;99.90;;;;;;5065550;28;20450;-85
2020/12/03 02:24:38;;;;;;;22.97;13.87;;;0.20;99.90;;;;;;5077622;28;20404;-85
2020/12/03 02:27:07;;;;;;;13.90;10.20;;;0.20;99.90;;;;;;5057223;28;20758;-85
2020/12/03 02:29:33;;;;;;;22.50;13.17;;;0.00;99.90;;;;;;5107859;28;20771;-83
2020/12/03 02:31:59;;;;;;;28.93;16.80;;;0.10;99.90;;;;;;5109181;28;20457;-84
2020/12/03 02:34:25;;;;;;;23.57;13.10;;;0.20;99.90;;;;;;5090544;28;20204;-84
2020/12/03 02:36:53;;;;;;;15.20;11.30;;;0.20;99.90;;;;;;5107730;28;20158;-84
2020/12/03 02:39:20;;;;;;;23.17;15.67;;;0.40;99.90;;;;;;5108673;28;20222;-85
2020/12/03 02:41:45;;;;;;;24.83;15.60;;;0.00;99.90;;;;;;5109053;28;20915;-85
2020/12/03 02:44:12;;;;;;;25.70;14.63;;;0.20;99.90;;;;;;5109216;28;20435;-85
2020/12/03 02:46:38;;;;;;;25.10;11.57;;;0.30;99.90;;;;;;5109185;28;20371;-85
2020/12/03 02:49:04;;;;;;;21.37;15.00;;;0.30;99.90;;;;;;5108837;28;20434;-84
2020/12/03 02:51:29;;;;;;;21.53;12.73;;;0.30;99.90;;;;;;5101666;28;20247;-84
2020/12/03 02:53:55;;;;;;;26.40;16.43;;;0.40;99.90;;;;;;5108185;28;20162;-83
2020/12/03 02:56:21;;;;;;;16.77;10.70;;;0.50;99.90;;;;;;5109003;28;20393;-84
2020/12/03 02:58:47;;;;;;;27.50;14.27;;;0.60;99.90;;;;;;5111585;28;20159;-84
2020/12/03 03:01:13;;;;;;;19.50;10.77;;;0.60;99.90;;;;;;5102945;28;20834;-84
2020/12/03 03:03:39;;;;;;;21.23;13.90;;;0.40;99.90;;;;;;5111886;28;20163;-84
2020/12/03 03:06:04;;;;;;;17.73;12.60;;;0.40;99.90;;;;;;5112134;28;20395;-84
2020/12/03 03:08:30;;;;;;;21.77;12.13;;;0.40;99.90;;;;;;5093126;28;20166;-84
2020/12/03 03:10:56;;;;;;;17.90;10.37;;;0.20;99.90;;;;;;5111758;28;20282;-84
2020/12/03 03:13:22;;;;;;;22.50;13.43;;;0.50;99.90;;;;;;5111884;28;20194;-84
2020/12/03 03:15:48;;;;;;;25.43;12.67;;;0.10;99.90;;;;;;5111838;28;20400;-84
2020/12/03 03:18:14;;;;;;;20.53;12.73;;;0.00;99.90;;;;;;5110746;28;20151;-84
2020/12/03 03:20:40;;;;;;;20.23;11.10;;;0.00;99.90;;;;;;5110417;28;20466;-84
2020/12/03 03:23:06;;;;;;;22.53;14.00;;;-0.10;99.90;;;;;;5109785;28;20877;-82
2020/12/03 03:25:32;;;;;;;28.33;12.10;;;-0.10;99.90;;;;;;5111035;28;20170;-84
2020/12/03 03:27:58;;;;;;;21.47;12.10;;;0.00;99.90;;;;;;5092977;28;20396;-84
2020/12/03 03:30:24;;;;;;;21.13;10.60;;;0.10;99.90;;;;;;5092395;28;20436;-84
2020/12/03 03:32:49;;;;;;;38.87;12.30;;;-0.10;99.90;;;;;;5110923;28;20210;-84
2020/12/03 03:35:18;;;;;;;20.90;12.33;;;0.00;99.90;;;;;;5110322;28;20289;-84
2020/12/03 03:37:44;;;;;;;20.93;12.30;;;-0.10;99.90;;;;;;5110434;28;20166;-83
2020/12/03 03:40:10;;;;;;;19.10;11.17;;;0.00;99.90;;;;;;5111995;28;20384;-84
2020/12/03 03:42:36;;;;;;;23.10;15.33;;;0.30;99.90;;;;;;5115964;28;20393;-84
2020/12/03 03:45:05;;;;;;;18.33;10.73;;;0.10;99.90;;;;;;5110927;28;20393;-84
2020/12/03 03:47:31;;;;;;;22.47;13.00;;;0.10;99.90;;;;;;5110735;28;20159;-83
2020/12/03 03:49:56;;;;;;;26.77;14.97;;;0.10;99.90;;;;;;5090881;28;20444;-84
2020/12/03 03:52:22;;;;;;;15.93;11.87;;;0.20;99.90;;;;;;5109582;28;20225;-84
2020/12/03 03:54:48;;;;;;;17.13;12.60;;;0.10;99.90;;;;;;5090759;28;20161;-84
2020/12/03 03:57:14;;;;;;;21.63;12.90;;;0.20;99.90;;;;;;5108036;28;20400;-83
2020/12/03 03:59:41;;;;;;;26.87;12.90;;;0.00;99.90;;;;;;5109136;28;20224;-82
2020/12/03 04:02:07;;;;;;;24.93;12.60;;;0.30;99.90;;;;;;5108378;28;20420;-83
2020/12/03 04:04:33;;;;;;;26.10;13.90;;;0.50;99.90;;;;;;5108769;28;20385;-83
2020/12/03 04:06:59;;;;;;;26.27;14.30;;;0.20;99.90;;;;;;5108054;28;20162;-84
2020/12/03 04:09:25;;;;;;;23.57;14.70;;;0.30;99.90;;;;;;5106814;28;20166;-83
2020/12/03 04:11:50;;;;;;;18.37;13.93;;;0.50;99.90;;;;;;5091410;28;20247;-84
2020/12/03 04:14:16;;;;;;;24.70;13.43;;;0.40;99.90;;;;;;5107969;28;20162;-84
2020/12/03 04:16:42;;;;;;;20.13;14.20;;;0.40;99.90;;;;;;5107822;28;20195;-83
2020/12/03 04:19:07;;;;;;;30.83;14.20;;;0.40;99.90;;;;;;5108776;28;20165;-82
2020/12/03 04:21:37;;;;;;;27.43;14.77;;;0.10;99.90;;;;;;5090393;28;20178;-84
2020/12/03 04:24:04;;;;;;;28.93;15.50;;;0.20;99.90;;;;;;5086013;28;20159;-82
2020/12/03 04:26:30;;;;;;;24.20;12.70;;;0.40;99.90;;;;;;5106787;28;20393;-84
2020/12/03 04:28:55;;;;;;;26.53;12.63;;;0.30;99.90;;;;;;5109334;28;20457;-84
2020/12/03 04:31:21;;;;;;;24.07;13.60;;;0.20;99.90;;;;;;5090285;28;20616;-84
2020/12/03 04:33:47;;;;;;;26.50;14.30;;;0.20;99.90;;;;;;5106684;28;20170;-84
2020/12/03 04:36:13;;;;;;;24.43;14.70;;;0.10;99.90;;;;;;5108112;28;20162;-83
2020/12/03 04:38:42;;;;;;;23.90;15.37;;;0.50;99.90;;;;;;5055569;28;20183;-83
2020/12/03 04:41:08;;;;;;;32.73;16.60;;;0.50;99.90;;;;;;5105580;28;20393;-83
2020/12/03 04:43:46;;;;;;;28.20;15.03;;;0.40;99.90;;;;;;5102421;28;20170;-82
2020/12/03 04:46:31;;;;;;;17.90;11.97;;;0.40;99.90;;;;;;5094454;28;20898;-82
2020/12/03 04:49:28;;;;;;;14.97;10.50;;;0.00;99.90;;;;;;5082547;28;20378;-82
2020/12/03 04:52:25;;;;;;;15.67;11.23;;;0.10;99.90;;;;;;5087932;28;20452;-83
2020/12/03 04:55:17;;;;;;;23.67;12.87;;;0.00;99.90;;;;;;5089833;28;20877;-83
2020/12/03 04:58:09;;;;;;;29.40;13.70;;;0.00;99.90;;;;;;5071521;28;20421;-82
2020/12/03 05:00:54;;;;;;;26.40;13.47;;;-0.10;99.90;;;;;;5101139;28;20417;-82
2020/12/03 05:03:49;;;;;;;31.23;15.70;;;-0.10;99.90;;;;;;5097993;28;20502;-83
2020/12/03 05:06:27;;;;;;;23.30;12.43;;;0.00;99.90;;;;;;5081986;28;20756;-83
2020/12/03 05:09:09;;;;;;;33.97;14.90;;;0.10;99.90;;;;;;5104104;28;20408;-83
2020/12/03 05:11:42;;;;;;;27.73;15.03;;;0.20;99.90;;;;;;5103554;28;20456;-83
2020/12/03 05:14:30;;;;;;;21.93;14.00;;;0.20;99.90;;;;;;5054074;28;20752;-83
2020/12/03 05:17:17;;;;;;;23.20;11.70;;;0.50;99.90;;;;;;5101724;28;20477;-83
2020/12/03 05:20:00;;;;;;;24.37;13.87;;;0.10;99.90;;;;;;5082769;28;20435;-83
2020/12/03 05:22:27;;;;;;;24.73;13.60;;;0.20;99.90;;;;;;5045577;28;20394;-83
2020/12/03 05:24:53;;;;;;;31.63;14.93;;;0.30;99.90;;;;;;5062957;28;20390;-84
2020/12/03 05:27:28;;;;;;;23.37;15.10;;;0.20;99.90;;;;;;5062279;28;20403;-81
2020/12/03 05:29:56;;;;;;;29.10;15.60;;;-0.10;99.90;;;;;;5077267;28;20182;-83
2020/12/03 05:32:22;;;;;;;34.70;17.27;;;0.20;99.90;;;;;;5095775;28;20885;-83
2020/12/03 05:34:48;;;;;;;20.73;11.40;;;-0.10;99.90;;;;;;5084080;28;20420;-83
2020/12/03 05:37:16;;;;;;;26.53;13.27;;;0.00;99.90;;;;;;5082058;28;20171;-83
2020/12/03 05:39:47;;;;;;;27.60;13.80;;;-0.10;99.90;;;;;;5083077;28;20167;-84
2020/12/03 05:42:20;;;;;;;22.07;10.57;;;0.10;99.90;;;;;;5082948;28;20788;-83
2020/12/03 05:44:54;;;;;;;27.67;13.73;;;0.10;99.90;;;;;;5084202;28;20547;-82
2020/12/03 05:47:26;;;;;;;31.40;15.50;;;0.40;99.90;;;;;;5083227;28;20538;-84
2020/12/03 05:49:57;;;;;;;20.13;13.10;;;0.20;99.90;;;;;;5084002;28;20494;-83
2020/12/03 05:52:26;;;;;;;34.07;16.50;;;0.40;99.90;;;;;;5082688;28;20452;-82
2020/12/03 05:55:05;;;;;;;20.73;12.53;;;0.40;99.90;;;;;;5064811;28;20437;-84
2020/12/03 05:57:38;;;;;;;19.73;13.07;;;0.30;99.90;;;;;;5082629;28;20929;-83
2020/12/03 06:00:15;;;;;;;18.23;14.73;;;0.40;99.90;;;;;;5087976;28;20474;-84
2020/12/03 06:03:12;;;;;;;31.77;15.70;;;0.30;99.90;;;;;;5103551;28;20444;-84
2020/12/03 06:06:07;;;;;;;24.90;14.33;;;0.00;99.90;;;;;;5088414;28;20401;-84
2020/12/03 06:09:00;;;;;;;22.23;13.40;;;0.00;99.90;;;;;;5079967;28;20484;-84
2020/12/03 06:11:51;;;;;;;22.20;12.07;;;0.10;99.90;;;;;;5049084;28;20484;-82
2020/12/03 06:14:41;;;;;;;24.57;12.90;;;-0.10;99.90;;;;;;5060538;28;20502;-83
2020/12/03 06:17:24;;;;;;;30.33;15.93;;;0.10;99.90;;;;;;5065854;28;20731;-84
2020/12/03 06:20:12;;;;;;;23.80;14.17;;;0.10;99.90;;;;;;5063922;28;20480;-84
2020/12/03 06:23:15;;;;;;;28.73;14.83;;;0.10;99.90;;;;;;5070105;28;20424;-84
2020/12/03 06:26:04;;;;;;;20.60;11.57;;;0.00;99.90;;;;;;5049782;28;20509;-84
2020/12/03 06:28:59;;;;;;;29.27;12.17;;;0.00;99.90;;;;;;5054955;28;20407;-84
2020/12/03 06:31:57;;;;;;;25.93;14.90;;;-0.10;99.90;;;;;;5080796;28;20494;-83
2020/12/03 06:34:32;;;;;;;32.73;16.60;;;-0.20;99.90;;;;;;5065657;28;20434;-84
2020/12/03 06:37:02;;;;;;;27.63;14.17;;;-0.20;99.90;;;;;;5060909;28;20457;-84
2020/12/03 06:39:48;;;;;;;29.57;12.57;;;0.10;99.90;;;;;;5061114;28;20410;-84
2020/12/03 06:42:29;;;;;;;23.70;12.63;;;0.20;99.90;;;;;;5070927;28;20376;-84
2020/12/03 06:45:24;;;;;;;27.00;12.30;;;0.20;99.90;;;;;;5083384;28;20404;-84
2020/12/03 06:48:12;;;;;;;24.17;12.90;;;0.10;99.90;;;;;;5055763;28;20442;-84
2020/12/03 06:50:58;;;;;;;24.37;14.90;;;-0.10;99.90;;;;;;5079925;28;20417;-84
2020/12/03 06:53:44;;;;;;;28.20;14.40;;;-0.10;99.90;;;;;;5067500;28;20466;-84
2020/12/03 06:56:37;;;;;;;21.37;12.83;;;-0.20;99.90;;;;;;5065663;28;20441;-84
2020/12/03 06:59:29;;;;;;;18.10;12.20;;;-0.20;99.90;;;;;;5064963;28;20498;-83
2020/12/03 07:02:14;;;;;;;27.20;13.37;;;0.00;99.90;;;;;;5042586;28;20407;-84
2020/12/03 07:05:02;;;;;;;28.53;10.40;;;-0.10;99.90;;;;;;5060215;28;20914;-83
2020/12/03 07:07:57;;;;;;;31.10;15.37;;;-0.10;99.90;;;;;;5052720;28;20431;-83
2020/12/03 07:11:01;;;;;;;31.27;12.60;;;0.10;99.90;;;;;;5074487;28;20479;-84
2020/12/03 07:13:58;;;;;;;35.73;12.73;;;0.00;99.90;;;;;;5075807;28;20452;-83
2020/12/03 07:16:58;;;;;;;34.13;15.47;;;0.20;99.90;;;;;;5092010;28;20445;-84
2020/12/03 07:19:46;;;;;;;24.93;13.47;;;0.30;99.90;;;;;;5072600;28;20464;-83
2020/12/03 07:22:27;;;;;;;24.43;14.50;;;0.30;99.90;;;;;;5083328;28;20462;-83
2020/12/03 07:24:55;;;;;;;36.30;18.43;;;0.30;99.90;;;;;;5079259;28;20418;-82
2020/12/03 07:27:56;;;;;;;24.90;14.40;;;0.20;99.90;;;;;;5081875;28;20507;-83
2020/12/03 07:30:38;;;;;;;22.93;13.80;;;0.10;99.90;;;;;;5057810;28;20468;-83
2020/12/03 07:33:19;;;;;;;12.97;8.67;;;-0.10;99.90;;;;;;5072650;28;20794;-84
2020/12/03 07:36:01;;;;;;;24.87;15.10;;;-0.20;99.90;;;;;;5057408;28;20491;-83
2020/12/03 07:38:40;;;;;;;21.50;11.30;;;0.00;99.90;;;;;;5062370;28;20432;-83
2020/12/03 07:41:07;;;;;;;24.53;12.70;;;-0.10;99.90;;;;;;5047674;28;20490;-83
2020/12/03 07:43:36;;;;;;;19.70;13.23;;;-0.10;99.90;;;;;;5081799;28;20452;-83
2020/12/03 07:46:19;;;;;;;21.87;10.90;;;-0.10;99.90;;;;;;5064515;28;20525;-82
2020/12/03 07:48:48;;;;;;;23.37;9.70;;;-0.10;99.90;;;;;;5079205;28;20440;-81
2020/12/03 07:51:17;;;;;;;24.20;13.43;;;0.00;99.90;;;;;;5073374;28;20439;-83
2020/12/03 07:53:44;;;;;;;16.30;9.80;;;-0.10;99.90;;;;;;5074174;28;20465;-82
2020/12/03 07:56:32;;;;;;;21.43;11.83;;;-0.20;99.90;;;;;;5073603;28;20472;-82
2020/12/03 07:59:27;;;;;;;25.20;11.63;;;-0.20;99.90;;;;;;5072941;28;20736;-83
2020/12/03 08:01:59;;;;;;;25.27;14.80;;;0.10;99.90;;;;;;5054867;28;20437;-82
2020/12/03 08:04:36;;;;;;;26.00;15.90;;;0.20;99.90;;;;;;5039915;28;20456;-82
2020/12/03 08:07:24;;;;;;;25.20;11.27;;;0.30;99.90;;;;;;5074396;28;21064;-82
2020/12/03 08:09:50;;;;;;;21.30;10.60;;;0.10;99.90;;;;;;5055335;28;20570;-82
2020/12/03 08:12:21;;;;;;;26.80;16.23;;;0.10;99.90;;;;;;5071713;28;20475;-82
2020/12/03 08:14:49;;;;;;;29.00;13.60;;;0.30;99.90;;;;;;5057461;28;20454;-83
2020/12/03 08:17:36;;;;;;;31.23;14.53;;;0.10;99.90;;;;;;5072826;28;20541;-81
2020/12/03 08:20:18;;;;;;;24.70;13.67;;;-0.10;99.90;;;;;;5043649;28;20798;-84
2020/12/03 08:22:51;;;;;;;21.83;11.30;;;0.00;99.90;;;;;;5075509;28;20495;-83
2020/12/03 08:25:26;;;;;;;26.97;12.10;;;0.10;99.90;;;;;;5071287;28;20429;-82
2020/12/03 08:28:00;;;;;;;21.70;13.40;;;0.00;99.90;;;;;;5062571;28;20429;-83
2020/12/03 08:30:41;;;;;;;35.15;20.02;;;0.10;99.90;;;;;;5072061;28;20460;-82
2020/12/03 08:33:18;;;;;;;32.67;16.80;;;0.10;99.90;;;;;;5072993;28;20560;-82
2020/12/03 08:35:57;;;;;;;19.87;13.57;;;0.20;99.90;;;;;;5012093;28;20571;-81
2020/12/03 08:38:29;;;;;;;19.03;11.33;;;0.10;99.90;;;;;;4984168;28;20527;-84
2020/12/03 08:40:58;;;;;;;30.20;12.73;;;-0.10;99.90;;;;;;5013617;28;20506;-82
2020/12/03 08:43:27;;;;;;;28.10;13.37;;;0.10;99.90;;;;;;5010798;28;20451;-85
2020/12/03 08:46:07;;;;;;;25.90;12.90;;;0.20;99.90;;;;;;4983366;28;20464;-82
2020/12/03 08:48:36;;;;;;;23.13;14.57;;;0.10;99.90;;;;;;5013705;28;20489;-85
2020/12/03 08:51:06;;;;;;;29.23;14.00;;;0.20;99.90;;;;;;4981074;28;20820;-84
2020/12/03 08:53:38;;;;;;;18.40;12.30;;;0.10;99.90;;;;;;4988814;28;20463;-85
2020/12/03 08:56:24;;;;;;;18.50;11.27;;;0.20;99.90;;;;;;5016317;28;20464;-84
2020/12/03 08:59:07;;;;;;;19.27;11.17;;;0.10;99.90;;;;;;4991723;28;20942;-84
2020/12/03 09:01:38;;;;;;;23.00;14.30;;;0.30;99.90;;;;;;4980269;28;20442;-83
2020/12/03 09:04:06;;;;;;;25.47;12.60;;;0.20;99.90;;;;;;4990474;28;20451;-84
2020/12/03 09:06:35;;;;;;;17.77;10.97;;;0.20;99.90;;;;;;5017525;28;20781;-85
2020/12/03 09:09:03;;;;;;;22.83;10.53;;;0.30;99.90;;;;;;5052961;28;20461;-84
2020/12/03 09:11:33;;;;;;;23.80;13.33;;;0.20;99.90;;;;;;5055783;28;20683;-84
2020/12/03 09:14:01;;;;;;;24.67;11.93;;;0.30;99.90;;;;;;5052653;28;20430;-85
2020/12/03 09:16:29;;;;;;;27.63;14.20;;;0.30;99.90;;;;;;5049658;28;20471;-85
2020/12/03 09:18:55;;;;;;;29.57;12.27;;;0.40;99.90;;;;;;5033484;28;20956;-82
2020/12/03 09:21:29;;;;;;;16.13;10.37;;;0.40;99.90;;;;;;5052259;28;20585;-85
2020/12/03 09:23:57;;;;;;;18.33;11.87;;;0.30;99.90;;;;;;5053311;28;20179;-84
2020/12/03 09:26:34;;;;;;;27.73;13.50;;;0.20;99.90;;;;;;5053596;28;20437;-85
2020/12/03 09:29:02;;;;;;;26.90;11.10;;;0.50;99.90;;;;;;5054615;28;20433;-83
2020/12/03 09:31:32;;;;;;;25.60;14.07;;;0.60;99.90;;;;;;5050480;28;20445;-84
2020/12/03 09:33:59;;;;;;;15.77;8.93;;;0.70;99.90;;;;;;5051600;28;20441;-84
2020/12/03 09:36:31;;;;;;;18.20;9.27;;;0.30;99.90;;;;;;5055430;28;20430;-85
2020/12/03 09:39:18;;;;;;;18.83;11.33;;;0.40;99.90;;;;;;5032755;28;20433;-83
2020/12/03 09:41:44;;;;;;;19.57;12.57;;;0.30;99.90;;;;;;5003580;28;20800;-84
2020/12/03 09:44:14;;;;;;;30.03;11.80;;;0.20;99.90;;;;;;5033543;28;20906;-85
2020/12/03 09:46:45;;;;;;;23.07;13.17;;;0.30;99.90;;;;;;5030747;28;21102;-84
2020/12/03 09:49:15;;;;;;;19.40;10.60;;;0.50;99.90;;;;;;5039685;28;20426;-83
2020/12/03 09:51:43;;;;;;;26.40;10.40;;;0.30;99.90;;;;;;5044217;28;20798;-80
2020/12/03 09:54:10;;;;;;;17.10;10.57;;;0.50;99.90;;;;;;4997247;28;20437;-80
2020/12/03 09:56:39;;;;;;;28.33;10.30;;;0.40;99.90;;;;;;5025425;28;20541;-79
2020/12/03 09:59:06;;;;;;;21.17;12.67;;;0.30;99.90;;;;;;5010507;28;20450;-81
2020/12/03 10:01:57;;;;;;;32.20;14.40;;;0.50;99.90;;;;;;5027396;28;20473;-81
2020/12/03 10:04:58;;;;;;;19.23;13.43;;;0.60;99.90;;;;;;5031058;28;20417;-83
2020/12/03 10:07:45;;;;;;;21.90;12.60;;;0.50;99.90;;;;;;5031777;28;20423;-85
2020/12/03 10:10:26;;;;;;;33.13;14.47;;;0.60;99.90;;;;;;5018459;28;20443;-82
2020/12/03 10:13:26;;;;;;;21.47;12.40;;;0.50;99.90;;;;;;5036866;28;20827;-84
2020/12/03 10:16:09;;;;;;;17.53;11.53;;;0.50;99.90;;;;;;5045793;28;20944;-84
2020/12/03 10:18:43;;;;;;;18.93;8.87;;;0.60;99.90;;;;;;5068426;28;20722;-84
2020/12/03 10:21:09;;;;;;;21.07;11.00;;;0.70;99.90;;;;;;5027197;28;20457;-83
2020/12/03 10:23:41;;;;;;;30.90;12.13;;;0.60;99.90;;;;;;5040890;28;20437;-85
2020/12/03 10:26:16;;;;;;;18.27;11.03;;;0.60;99.90;;;;;;5062528;28;20512;-84
2020/12/03 10:28:53;;;;;;;20.83;14.00;;;0.70;99.90;;;;;;5039182;28;20515;-85
2020/12/03 10:31:21;;;;;;;30.17;11.10;;;0.80;99.90;;;;;;5056448;28;20478;-85
2020/12/03 10:33:51;;;;;;;18.80;12.00;;;0.70;99.90;;;;;;5050926;28;20489;-84
2020/12/03 10:36:32;;;;;;;22.73;11.40;;;0.80;99.90;;;;;;5086656;28;21070;-84
2020/12/03 10:39:02;;;;;;;21.47;10.70;;;0.50;99.90;;;;;;5060704;28;20508;-84
2020/12/03 10:41:33;;;;;;;8.97;5.77;;;0.60;99.90;;;;;;5058067;28;20432;-86
2020/12/03 10:44:02;;;;;;;22.00;12.20;;;0.60;99.90;;;;;;5053438;28;20428;-81
2020/12/03 10:46:30;;;;;;;40.72;21.27;;;0.60;99.90;;;;;;5073194;28;20951;-85
2020/12/03 10:48:59;;;;;;;30.77;15.27;;;0.40;99.90;;;;;;5076230;28;20607;-82
2020/12/03 10:51:25;;;;;;;20.33;11.40;;;0.60;99.90;;;;;;5048658;28;20437;-85
2020/12/03 10:53:53;;;;;;;32.87;11.77;;;0.60;99.90;;;;;;5073833;28;20548;-84
2020/12/03 10:56:26;;;;;;;24.27;12.57;;;0.60;99.90;;;;;;5072422;28;20437;-82
2020/12/03 10:59:37;;;;;;;21.03;7.97;;;0.60;99.90;;;;;;5063865;28;20856;-81
2020/12/03 11:02:11;;;;;;;30.10;11.47;;;0.60;99.90;;;;;;5084229;28;20460;-83
2020/12/03 11:04:38;;;;;;;20.03;11.00;;;0.70;99.90;;;;;;5076190;28;21700;-83
2020/12/03 11:07:11;;;;;;;18.00;9.80;;;0.90;99.90;;;;;;5076295;28;20445;-82
2020/12/03 11:09:39;;;;;;;17.53;12.03;;;0.90;99.90;;;;;;5068580;28;20437;-83
2020/12/03 11:12:10;;;;;;;20.03;12.77;;;0.90;99.90;;;;;;5055269;28;20450;-84
2020/12/03 11:14:36;;;;;;;18.67;10.40;;;1.10;99.90;;;;;;5065393;28;20430;-85
2020/12/03 11:17:14;;;;;;;18.07;10.30;;;0.90;99.90;;;;;;5064289;28;20433;-84
2020/12/03 11:19:42;;;;;;;23.70;11.73;;;1.10;99.90;;;;;;5047956;28;20809;-84
2020/12/03 11:22:30;;;;;;;29.70;12.77;;;0.80;99.90;;;;;;5004789;28;20428;-85
2020/12/03 11:25:02;;;;;;;16.93;11.43;;;1.00;99.90;;;;;;5002183;28;20567;-84
2020/12/03 11:27:29;;;;;;;20.07;12.70;;;1.00;99.90;;;;;;5016237;28;20412;-85
2020/12/03 11:29:55;;;;;;;19.17;11.87;;;1.10;99.90;;;;;;5014969;28;20444;-85
2020/12/03 11:32:25;;;;;;;15.73;9.03;;;0.90;99.90;;;;;;5019983;28;20659;-84
2020/12/03 11:34:51;;;;;;;18.30;8.90;;;0.70;99.90;;;;;;5012693;28;20185;-85
2020/12/03 11:37:22;;;;;;;17.07;9.60;;;0.70;99.90;;;;;;5014131;28;20435;-84
2020/12/03 11:39:50;;;;;;;19.33;9.27;;;0.70;99.90;;;;;;5017490;28;20869;-85
2020/12/03 11:42:28;;;;;;;14.40;6.37;;;0.70;99.90;;;;;;5017461;28;20423;-82
2020/12/03 11:48:37;;;;;;;18.40;12.77;;;0.60;99.90;;;;;;4997267;28;20447;-84
2020/12/03 11:50:44;;;;;;;17.50;9.23;;;0.70;99.90;;;;;;5014362;28;20432;-85
2020/12/03 11:53:09;;;;;;;14.93;8.80;;;0.70;99.90;;;;;;5035023;28;20458;-85
2020/12/03 11:55:39;;;;;;;17.23;9.80;;;0.80;99.90;;;;;;5056238;28;20180;-85
2020/12/03 11:58:07;;;;;;;15.80;10.90;;;0.90;99.90;;;;;;5037737;28;20199;-84
2020/12/03 12:00:34;;;;;;;26.97;12.80;;;0.80;99.90;;;;;;5058232;28;20429;-84
2020/12/03 12:03:04;;;;;;;16.80;8.37;;;0.80;99.90;;;;;;5053477;28;20418;-84
2020/12/03 12:05:50;;;;;;;18.50;11.83;;;0.60;99.90;;;;;;5053555;28;20446;-83
2020/12/03 12:11:05;;;;;;;22.87;11.87;;;0.70;99.90;;;;;;5067128;28;20488;-84
2020/12/03 12:13:31;;;;;;;13.20;8.90;;;1.00;99.90;;;;;;5075574;28;20454;-84
2020/12/03 12:15:57;;;;;;;21.13;9.47;;;0.80;99.90;;;;;;5040231;28;20967;-85
2020/12/03 12:18:23;;;;;;;23.53;13.47;;;0.90;99.90;;;;;;5077521;28;20179;-85
2020/12/03 12:21:10;;;;;;;23.30;11.03;;;0.80;99.90;;;;;;5074833;28;20199;-85
2020/12/03 12:23:38;;;;;;;18.37;12.60;;;0.90;99.90;;;;;;5045898;28;20452;-85
2020/12/03 12:26:04;;;;;;;13.63;8.73;;;0.80;99.90;;;;;;5054843;28;20438;-85
2020/12/03 12:28:30;;;;;;;21.10;9.70;;;0.90;99.90;;;;;;5038369;28;20286;-83
2020/12/03 12:30:56;;;;;;;17.33;9.30;;;0.80;99.90;;;;;;5023788;28;20636;-83
2020/12/03 12:33:22;;;;;;;18.43;10.37;;;0.70;99.90;;;;;;5033124;28;20465;-85
2020/12/03 12:35:48;;;;;;;19.37;11.13;;;0.90;99.90;;;;;;5018202;28;20630;-82
2020/12/03 12:38:14;;;;;;;18.80;10.03;;;0.80;99.90;;;;;;5036703;28;20439;-84
2020/12/03 12:40:41;;;;;;;20.83;10.43;;;0.70;99.90;;;;;;5054072;28;20453;-84
2020/12/03 12:43:07;;;;;;;18.17;9.80;;;0.80;99.90;;;;;;5061986;28;20283;-82
2020/12/03 12:45:32;;;;;;;17.33;10.60;;;0.80;99.90;;;;;;5042845;28;20473;-85
2020/12/03 12:47:58;;;;;;;24.57;10.40;;;1.00;99.90;;;;;;5059555;28;20445;-84
2020/12/03 12:50:26;;;;;;;26.47;13.03;;;0.90;99.90;;;;;;5055812;28;20198;-85
2020/12/03 12:52:52;;;;;;;23.10;11.63;;;1.10;99.90;;;;;;5007613;28;20200;-84
2020/12/03 12:55:21;;;;;;;20.97;10.70;;;0.90;99.90;;;;;;5076529;28;20476;-84
2020/12/03 12:58:11;;;;;;;22.23;10.80;;;0.90;99.90;;;;;;5067901;28;20187;-84
2020/12/03 13:00:40;;;;;;;26.53;14.80;;;1.00;99.90;;;;;;5036912;28;20431;-81
2020/12/03 13:03:09;;;;;;;24.43;13.07;;;1.10;99.90;;;;;;5046558;28;20464;-82
2020/12/03 13:05:35;;;;;;;14.70;12.83;;;1.00;99.90;;;;;;5002092;28;20503;-85
2020/12/03 13:08:04;;;;;;;18.20;8.73;;;0.90;99.90;;;;;;5000334;28;20519;-85
2020/12/03 13:10:30;;;;;;;23.93;11.87;;;0.90;99.90;;;;;;4998609;28;20503;-85